Time;durP1;ratioP1;P1;durP2;ratioP2;P2;SDS_P1;SDS_P2;PMS_P1;PMS_P2;Temp;Humidity;BMP_temperature;BMP_pressure;BME280_temperature;BME280_humidity;BME280_pressure;Samples;Min_cycle;Max_cycle;Signal;HPM_P1;HPM_P2
2022/05/07 00:00:31;;;;;;;16.73;8.75;;;;;;;7.09;69.27;100867.44;2242853;78;20974;-80
2022/05/07 00:03:32;;;;;;;15.60;9.75;;;;;;;7.07;69.48;100861.95;2236479;78;20965;-81
2022/05/07 00:06:33;;;;;;;13.98;8.50;;;;;;;7.06;69.64;100857.13;2238585;78;21026;-82
2022/05/07 00:09:35;;;;;;;15.13;9.08;;;;;;;7.04;69.68;100861.72;2240159;78;21848;-80
2022/05/07 00:12:36;;;;;;;13.10;7.85;;;;;;;7.01;69.63;100855.84;2237064;78;21457;-82
2022/05/07 00:15:38;;;;;;;13.53;8.28;;;;;;;7.01;69.83;100854.06;2235927;78;21481;-79
2022/05/07 00:18:39;;;;;;;16.90;8.45;;;;;;;7.02;69.97;100855.73;2243457;78;20942;-82
2022/05/07 00:21:40;;;;;;;14.05;8.48;;;;;;;7.01;69.87;100854.06;2237232;78;21038;-78
2022/05/07 00:24:41;;;;;;;15.48;7.33;;;;;;;6.97;69.92;100855.26;2237589;78;20930;-82
2022/05/07 00:27:42;;;;;;;18.15;8.70;;;;;;;6.83;70.22;100860.82;2237521;78;21011;-82
2022/05/07 00:30:43;;;;;;;;;;;;;;;6.72;70.42;100854.61;2241728;78;21006;-78
2022/05/07 00:33:45;;;;;;;17.87;8.68;;;;;;;6.62;70.82;100862.92;2240895;78;20121;-81
2022/05/07 00:36:46;;;;;;;16.60;9.45;;;;;;;6.39;70.72;100864.76;2243857;78;21438;-81
2022/05/07 00:39:48;;;;;;;14.70;8.80;;;;;;;6.22;71.29;100854.23;2243258;78;20969;-78
2022/05/07 00:42:49;;;;;;;17.75;9.98;;;;;;;6.12;71.55;100859.84;2243805;78;21087;-80
2022/05/07 00:45:53;;;;;;;13.25;9.05;;;;;;;6.10;72.26;100854.34;2215662;79;20992;-81
2022/05/07 00:48:57;;;;;;;15.85;9.28;;;;;;;6.13;72.15;100859.36;2219191;79;21004;-79
2022/05/07 00:51:59;;;;;;;16.32;9.33;;;;;;;6.13;71.75;100857.56;2217845;79;21498;-79
2022/05/07 00:55:00;;;;;;;14.73;8.60;;;;;;;6.13;71.58;100856.24;2220620;79;20966;-80
2022/05/07 00:58:02;;;;;;;16.97;8.63;;;;;;;6.15;71.74;100864.88;2243614;77;20997;-80
2022/05/07 01:01:03;;;;;;;15.95;8.40;;;;;;;6.17;71.37;100860.33;2233582;78;20990;-83
2022/05/07 01:04:04;;;;;;;15.40;9.15;;;;;;;6.15;71.29;100862.24;2240103;79;20962;-82
2022/05/07 01:07:07;;;;;;;14.30;8.80;;;;;;;6.13;71.28;100860.20;2256368;78;21086;-81
2022/05/07 01:10:09;;;;;;;13.50;8.85;;;;;;;6.12;71.47;100858.53;2259486;78;21432;-80
2022/05/07 01:13:11;;;;;;;14.85;7.87;;;;;;;6.12;71.41;100855.89;2225692;79;20986;-79
2022/05/07 01:16:13;;;;;;;12.45;8.23;;;;;;;6.13;71.49;100853.61;2212168;79;21452;-83
2022/05/07 01:19:15;;;;;;;16.65;10.13;;;;;;;6.13;71.41;100855.41;2219411;79;22364;-80
2022/05/07 01:22:19;;;;;;;15.05;9.63;;;;;;;6.13;71.48;100853.61;2219662;79;21583;-80
2022/05/07 01:25:20;;;;;;;17.40;10.53;;;;;;;6.15;71.68;100855.66;2217355;79;20993;-79
2022/05/07 01:28:21;;;;;;;15.63;9.40;;;;;;;6.12;71.59;100851.95;2219350;79;21007;-80
2022/05/07 01:31:26;;;;;;;21.75;11.73;;;;;;;6.13;71.85;100858.05;2238989;79;20987;-79
2022/05/07 01:34:28;;;;;;;14.03;9.78;;;;;;;6.16;72.09;100852.05;2239375;78;21054;-80
2022/05/07 01:37:29;;;;;;;19.05;8.95;;;;;;;6.15;71.99;100846.91;2238950;78;21045;-80
2022/05/07 01:40:31;;;;;;;15.53;8.30;;;;;;;6.09;72.02;100844.28;2237990;78;21463;-81
2022/05/07 01:43:33;;;;;;;14.10;9.28;;;;;;;6.08;71.98;100846.54;2239917;78;21520;-80
2022/05/07 01:49:56;;;;;;;15.63;10.32;;;;;;;5.97;71.92;100843.91;2238856;78;21019;-82
2022/05/07 01:52:57;;;;;;;13.38;9.13;;;;;;;5.92;72.07;100847.36;2242344;78;21446;-83
2022/05/07 01:55:58;;;;;;;;;;;;;;;5.91;72.25;100850.45;2243118;78;21013;-79
2022/05/07 01:59:01;;;;;;;12.35;8.33;;;;;;;5.78;72.18;100841.84;2240600;78;20152;-80
2022/05/07 02:02:02;;;;;;;14.07;8.63;;;;;;;5.63;72.16;100842.52;2240375;78;21454;-81
2022/05/07 02:05:04;;;;;;;11.57;8.25;;;;;;;5.57;72.19;100842.98;2236044;78;21455;-80
2022/05/07 02:08:06;;;;;;;13.13;7.90;;;;;;;5.52;72.21;100838.55;2238805;78;21021;-79
2022/05/07 02:11:07;;;;;;;12.50;9.33;;;;;;;5.49;72.18;100840.96;2239705;78;21669;-81
2022/05/07 02:14:10;;;;;;;18.62;9.70;;;;;;;5.43;72.39;100842.72;2237953;78;21032;-83
2022/05/07 02:17:12;;;;;;;15.58;9.68;;;;;;;5.32;72.68;100845.31;2238830;78;21435;-81
2022/05/07 02:20:15;;;;;;;15.40;8.90;;;;;;;5.32;73.07;100842.23;2236511;78;21032;-80
2022/05/07 02:23:18;;;;;;;15.50;8.43;;;;;;;5.36;73.02;100841.52;2239817;78;21097;-81
2022/05/07 02:26:19;;;;;;;18.62;9.08;;;;;;;5.39;72.80;100841.28;2229135;78;21096;-79
2022/05/07 02:29:20;;;;;;;15.45;9.38;;;;;;;5.36;72.94;100837.57;2239100;78;20990;-80
2022/05/07 02:32:22;;;;;;;13.25;9.03;;;;;;;5.32;72.97;100836.97;2237484;78;21571;-82
2022/05/07 02:35:25;;;;;;;14.30;9.00;;;;;;;5.32;72.97;100836.97;2236952;78;20999;-79
2022/05/07 02:38:26;;;;;;;15.80;10.00;;;;;;;5.33;72.99;100839.95;2238517;78;21060;-82
2022/05/07 02:44:48;;;;;;;14.28;9.33;;;;;;;5.34;73.25;100840.30;2241493;78;21052;-77
2022/05/07 02:47:49;;;;;;;14.40;10.03;;;;;;;5.33;73.08;100841.27;2238335;78;20955;-80
2022/05/07 02:50:51;;;;;;;14.93;9.40;;;;;;;5.35;73.40;100842.00;2236109;78;21012;-78
2022/05/07 02:53:55;;;;;;;;;;;;;;;5.40;73.59;100839.84;2243267;78;21467;-80
2022/05/07 02:56:58;;;;;;;14.53;8.98;;;;;;;5.47;73.76;100837.60;2204231;78;20414;-81
2022/05/07 03:00:01;;;;;;;15.63;9.80;;;;;;;5.55;73.77;100838.34;2241794;78;21095;-81
2022/05/07 03:03:02;;;;;;;16.05;9.33;;;;;;;5.60;73.88;100841.44;2237055;78;21048;-84
2022/05/07 03:06:04;;;;;;;14.33;9.53;;;;;;;5.61;73.75;100837.39;2238137;78;21034;-82
2022/05/07 03:09:07;;;;;;;17.42;9.90;;;;;;;5.60;73.79;100839.67;2238108;78;21072;-79
2022/05/07 03:12:09;;;;;;;16.90;9.90;;;;;;;5.65;73.94;100835.83;2237283;78;21884;-85
2022/05/07 03:15:11;;;;;;;16.93;10.38;;;;;;;5.71;74.16;100833.55;2228755;78;20988;-79
2022/05/07 03:18:12;;;;;;;15.23;9.63;;;;;;;5.75;74.16;100832.38;2236855;78;20989;-79
2022/05/07 03:21:14;;;;;;;16.17;9.53;;;;;;;5.84;74.21;100840.05;2235116;78;21049;-80
2022/05/07 03:24:15;;;;;;;16.97;10.05;;;;;;;5.87;74.16;100833.70;2236082;78;20971;-82
2022/05/07 03:27:17;;;;;;;13.22;9.43;;;;;;;5.92;74.09;100835.03;2241131;78;21008;-80
2022/05/07 03:30:21;;;;;;;16.80;10.10;;;;;;;5.96;73.98;100835.16;2236065;78;21101;-80
2022/05/07 03:33:25;;;;;;;19.92;10.32;;;;;;;5.96;73.96;100836.48;2225362;79;21033;-79
2022/05/07 03:36:26;;;;;;;17.40;10.68;;;;;;;6.00;74.15;100836.63;2227864;80;21035;-81
2022/05/07 03:39:31;;;;;;;13.55;8.70;;;;;;;6.13;74.21;100836.48;2228526;80;21049;-81
2022/05/07 03:42:33;;;;;;;16.73;10.10;;;;;;;6.29;74.05;100838.76;2227471;80;21553;-82
2022/05/07 03:45:35;;;;;;;16.23;9.50;;;;;;;6.44;74.06;100841.48;2216444;79;21002;-77
2022/05/07 03:48:37;;;;;;;13.70;9.70;;;;;;;6.66;74.00;100835.33;2215902;79;21569;-79
2022/05/07 03:55:00;;;;;;;15.15;9.10;;;;;;;7.11;73.69;100843.57;2210733;79;21639;-82
2022/05/07 03:58:01;;;;;;;14.33;9.58;;;;;;;7.38;73.42;100843.92;2214473;79;21081;-80
2022/05/07 04:01:04;;;;;;;14.53;10.08;;;;;;;7.68;73.43;100846.25;2225179;80;20999;-79
2022/05/07 04:04:07;;;;;;;14.78;9.05;;;;;;;7.95;72.92;100847.03;2228215;80;21024;-81
2022/05/07 04:07:09;;;;;;;11.93;9.13;;;;;;;8.23;72.73;100848.13;2229349;80;20980;-80
2022/05/07 04:10:12;;;;;;;12.88;10.10;;;;;;;8.64;72.69;100848.11;2213742;79;21026;-82
2022/05/07 04:13:18;;;;;;;15.93;9.75;;;;;;;9.02;72.38;100851.80;2231165;78;21514;-81
2022/05/07 04:16:21;;;;;;;15.03;9.93;;;;;;;9.38;71.76;100852.41;2217224;79;21501;-78
2022/05/07 04:19:27;;;;;;;16.55;10.88;;;;;;;9.72;71.50;100856.41;2211711;79;21572;-78
2022/05/07 04:22:32;;;;;;;15.75;10.13;;;;;;;10.06;70.94;100856.72;2212965;79;21017;-82
2022/05/07 04:25:33;;;;;;;15.40;10.35;;;;;;;10.23;70.13;100861.75;2213048;79;22280;-80
2022/05/07 04:28:35;;;;;;;15.90;9.60;;;;;;;10.53;70.41;100868.59;2211561;79;21554;-79
2022/05/07 04:31:36;;;;;;;18.25;11.08;;;;;;;10.91;69.97;100866.69;2225219;78;21520;-79
2022/05/07 04:34:39;;;;;;;16.85;10.03;;;;;;;11.47;69.89;100873.50;2238944;78;21531;-79
2022/05/07 04:37:41;;;;;;;16.30;10.08;;;;;;;11.97;69.11;100864.08;2216562;78;20966;-81
2022/05/07 04:40:43;;;;;;;18.45;10.93;;;;;;;12.21;68.25;100867.34;2256482;77;21065;-79
2022/05/07 04:43:45;;;;;;;19.10;10.28;;;;;;;12.58;68.06;100869.66;2224759;78;21509;-81
2022/05/07 04:46:48;;;;;;;20.50;10.63;;;;;;;12.99;67.96;100877.25;2255211;77;21040;-80
2022/05/07 04:49:49;;;;;;;14.23;9.58;;;;;;;13.34;66.90;100870.48;2252931;78;20987;-84
2022/05/07 04:52:51;;;;;;;16.23;8.98;;;;;;;13.57;66.41;100878.64;2257535;77;21446;-80
2022/05/07 04:55:52;;;;;;;17.57;8.78;;;;;;;13.76;65.79;100884.95;2228516;77;21009;-82
2022/05/07 04:58:56;;;;;;;15.90;9.35;;;;;;;14.05;64.98;100879.55;2257945;78;21063;-83
2022/05/07 05:01:59;;;;;;;15.83;9.33;;;;;;;14.18;64.35;100881.20;2251706;77;21085;-80
2022/05/07 05:05:01;;;;;;;14.80;9.80;;;;;;;14.40;63.92;100886.30;2229606;78;20948;-79
2022/05/07 05:08:02;;;;;;;15.15;10.03;;;;;;;14.60;63.71;100889.92;2253454;77;21042;-84
2022/05/07 05:11:06;;;;;;;15.15;8.55;;;;;;;15.21;63.83;100896.24;2254604;77;21466;-82
2022/05/07 05:17:31;;;;;;;13.20;9.58;;;;;;;16.18;62.24;100894.21;2256313;77;21027;-82
2022/05/07 05:20:33;;;;;;;12.80;9.20;;;;;;;16.82;61.47;100887.75;2223474;80;21497;-80
2022/05/07 05:23:46;;;;;;;14.47;9.75;;;;;;;17.30;60.49;100879.98;2235363;79;21025;-81
2022/05/07 05:26:48;;;;;;;12.43;9.93;;;;;;;17.86;60.22;100883.27;2239556;78;21058;-78
2022/05/07 05:29:51;;;;;;;13.88;10.00;;;;;;;18.18;58.91;100886.34;2232489;78;21008;-78
2022/05/07 05:32:53;;;;;;;17.75;10.43;;;;;;;17.97;57.90;100882.72;2232790;78;20998;-82
2022/05/07 05:35:55;;;;;;;16.27;10.88;;;;;;;17.72;57.52;100887.67;2228128;79;21068;-82
2022/05/07 05:38:57;;;;;;;15.78;11.00;;;;;;;17.46;57.26;100885.09;2231854;79;20985;-84
2022/05/07 05:42:00;;;;;;;16.82;12.07;;;;;;;17.45;57.29;100888.78;2228725;79;20986;-85
2022/05/07 05:45:04;;;;;;;15.40;12.47;;;;;;;17.16;56.97;100891.61;2225025;79;21046;-83
2022/05/07 05:48:08;;;;;;;18.92;12.68;;;;;;;16.94;57.23;100898.28;2228400;79;21014;-84
2022/05/07 05:51:10;;;;;;;15.25;11.80;;;;;;;16.88;56.96;100893.69;2228757;79;21026;-83
2022/05/07 05:54:13;;;;;;;19.20;12.50;;;;;;;16.83;56.77;100896.09;2229293;79;21040;-82
2022/05/07 05:57:15;;;;;;;15.63;11.28;;;;;;;17.05;57.07;100896.14;2220719;79;21025;-84
2022/05/07 06:00:18;;;;;;;14.38;11.53;;;;;;;17.27;56.65;100899.15;2225582;79;21068;-83
2022/05/07 06:03:19;;;;;;;16.23;11.75;;;;;;;17.11;55.81;100893.52;2225555;79;21518;-84
2022/05/07 06:06:21;;;;;;;16.12;9.78;;;;;;;17.35;55.15;100900.88;2223975;79;21044;-83
2022/05/07 06:09:23;;;;;;;20.82;11.88;;;;;;;17.72;54.83;100893.03;2225092;79;20963;-83
2022/05/07 06:12:25;;;;;;;14.73;9.50;;;;;;;17.67;54.69;100898.15;2226673;79;22218;-87
2022/05/07 06:15:27;;;;;;;13.68;9.60;;;;;;;17.52;54.88;100900.10;2223769;79;20949;-83
2022/05/07 06:18:30;;;;;;;12.85;9.08;;;;;;;17.53;54.58;100903.09;2219310;79;21046;-83
2022/05/07 06:21:33;;;;;;;16.90;9.50;;;;;;;17.58;54.49;100902.01;2222584;79;21056;-84
2022/05/07 06:27:55;;;;;;;14.38;9.95;;;;;;;17.75;53.94;100900.70;2223823;79;21021;-84
2022/05/07 06:31:00;;;;;;;16.77;10.28;;;;;;;17.67;53.87;100898.15;2223398;79;21015;-86
2022/05/07 06:34:02;;;;;;;18.92;9.60;;;;;;;17.61;53.89;100899.76;2235417;78;21548;-85
2022/05/07 06:37:04;;;;;;;13.50;9.48;;;;;;;17.63;53.63;100901.74;2222504;78;21017;-87
2022/05/07 06:40:08;;;;;;;15.58;9.43;;;;;;;17.84;53.70;100901.41;2229140;78;21411;-84
2022/05/07 06:43:11;;;;;;;14.63;9.10;;;;;;;18.10;54.06;100899.41;2233421;78;21039;-83
2022/05/07 06:46:14;;;;;;;10.88;7.97;;;;;;;18.11;53.04;100898.41;2233441;78;21019;-82
2022/05/07 06:49:29;;;;;;;13.00;9.28;;;;;;;18.09;53.04;100905.81;2223740;78;21061;-86
2022/05/07 06:52:31;;;;;;;14.50;8.95;;;;;;;18.20;52.58;100899.89;2222323;78;21005;-85
2022/05/07 06:55:54;;;;;;;11.53;8.00;;;;;;;17.97;52.09;100910.91;2229734;78;21060;-86
2022/05/07 06:58:36;;;;;;;10.72;8.25;;;;;;;17.73;52.07;100901.39;2225662;78;21038;-84
2022/05/07 07:01:38;;;;;;;12.07;7.87;;;;;;;17.68;52.93;100902.48;2215903;78;20930;-86
2022/05/07 07:04:39;;;;;;;9.18;7.58;;;;;;;17.82;52.31;100908.81;2218660;78;21044;-83
2022/05/07 07:07:42;;;;;;;7.25;5.08;;;;;;;17.94;52.31;100909.14;2209084;78;21013;-86
2022/05/07 07:10:43;;;;;;;10.63;5.58;;;;;;;18.06;50.80;100916.95;2210947;78;21007;-84
2022/05/07 07:13:45;;;;;;;10.43;5.62;;;;;;;17.97;50.09;100914.11;2216096;78;20988;-83
2022/05/07 07:16:46;;;;;;;7.92;6.17;;;;;;;17.92;49.57;100915.51;2221492;78;21560;-83
2022/05/07 07:19:47;;;;;;;10.38;5.33;;;;;;;17.94;49.86;100909.96;2215518;78;20982;-84
2022/05/07 07:22:49;;;;;;;10.18;5.10;;;;;;;18.03;49.80;100915.48;2212301;78;20996;-83
2022/05/07 07:25:50;;;;;;;6.80;4.65;;;;;;;18.22;50.00;100917.99;2218526;78;20973;-87
2022/05/07 07:28:53;;;;;;;7.35;4.53;;;;;;;18.44;49.44;100913.34;2211252;78;21001;-83
2022/05/07 07:31:54;;;;;;;11.93;4.70;;;;;;;18.54;48.96;100914.33;2222366;78;20969;-84
2022/05/07 07:34:56;;;;;;;7.62;4.75;;;;;;;18.68;48.51;100912.01;2237505;78;20989;-83
2022/05/07 07:37:57;;;;;;;7.45;4.87;;;;;;;18.83;48.39;100911.06;2236446;78;20967;-82
2022/05/07 07:41:02;;;;;;;6.70;4.55;;;;;;;18.98;47.95;100913.09;2232651;78;20988;-81
2022/05/07 07:44:04;;;;;;;6.60;4.60;;;;;;;19.11;47.87;100909.06;2230529;78;21036;-84
2022/05/07 07:50:30;;;;;;;7.75;4.87;;;;;;;19.46;46.80;100904.38;2234850;78;21336;-85
2022/05/07 07:53:34;;;;;;;8.70;5.05;;;;;;;20.01;46.08;100902.80;2210090;79;21070;-84
2022/05/07 07:56:37;;;;;;;7.15;4.55;;;;;;;20.48;45.47;100900.83;2252863;77;21052;-83
2022/05/07 07:59:39;;;;;;;7.72;4.75;;;;;;;20.71;45.54;100903.03;2244341;77;20938;-84
2022/05/07 08:02:55;;;;;;;12.20;5.45;;;;;;;21.03;44.42;100905.27;2245695;77;21138;-83
2022/05/07 08:05:57;;;;;;;8.13;4.97;;;;;;;21.07;44.13;100908.89;2243451;77;21002;-85
2022/05/07 08:12:18;;;;;;;9.83;4.80;;;;;;;21.89;43.92;100906.50;2247192;77;21037;-82
2022/05/07 08:15:20;;;;;;;11.15;4.83;;;;;;;22.03;43.04;100900.98;2243645;77;21232;-82
2022/05/07 08:18:22;;;;;;;8.05;4.85;;;;;;;22.15;43.08;100904.58;2247898;77;20965;-83
2022/05/07 08:21:23;;;;;;;6.87;4.83;;;;;;;22.21;42.39;100896.95;2238249;77;21026;-83
2022/05/07 08:24:24;;;;;;;5.03;4.53;;;;;;;22.22;41.92;100905.38;2240674;77;20977;-84
2022/05/07 08:27:25;;;;;;;7.03;5.55;;;;;;;22.63;41.90;100900.33;2248355;78;20972;-82
2022/05/07 08:30:26;;;;;;;12.30;5.30;;;;;;;23.10;41.51;100895.97;2247493;78;20961;-85
2022/05/07 08:33:29;;;;;;;9.73;4.58;;;;;;;23.53;41.03;100902.17;2252598;78;21025;-85
2022/05/07 08:36:30;;;;;;;5.95;3.87;;;;;;;24.02;40.90;100904.16;2230497;78;20954;-84
2022/05/07 08:39:31;;;;;;;7.97;4.58;;;;;;;24.37;40.44;100894.63;2226918;78;21009;-83
2022/05/07 08:42:36;;;;;;;5.60;4.03;;;;;;;24.55;39.36;100892.30;2232108;78;20985;-85
2022/05/07 08:45:42;;;;;;;6.00;3.40;;;;;;;24.75;39.41;100890.52;2215409;79;21471;-83
2022/05/07 08:48:47;;;;;;;6.37;4.12;;;;;;;25.03;38.68;100892.41;2208702;79;20984;-84
2022/05/07 08:51:50;;;;;;;7.17;4.30;;;;;;;25.34;38.88;100895.18;2249334;78;20991;-85
2022/05/07 08:54:51;;;;;;;7.30;4.22;;;;;;;25.70;37.35;100891.66;2223127;79;20986;-82
2022/05/07 08:57:53;;;;;;;8.30;4.33;;;;;;;25.62;37.45;100894.78;2220756;79;21507;-84
2022/05/07 09:00:55;;;;;;;5.95;4.20;;;;;;;25.72;37.06;100894.95;2221493;79;20995;-83
2022/05/07 09:03:58;;;;;;;6.65;3.42;;;;;;;25.70;36.37;100893.83;2194560;78;21028;-83
2022/05/07 09:07:03;;;;;;;5.37;2.85;;;;;;;25.72;36.44;100888.16;2224064;79;20975;-83
2022/05/07 09:10:07;;;;;;;3.05;2.83;;;;;;;25.89;36.28;100886.81;2226634;79;21054;-84
2022/05/07 09:13:16;;;;;;;4.45;2.85;;;;;;;26.27;34.36;100883.27;2221236;79;21032;-83
2022/05/07 09:16:17;;;;;;;9.20;3.73;;;;;;;26.17;33.63;100881.76;2221849;79;21038;-81
2022/05/07 09:19:28;;;;;;;5.35;2.37;;;;;;;26.05;33.83;100880.52;2222030;79;21316;-83
2022/05/07 09:22:29;;;;;;;4.17;2.87;;;;;;;26.16;33.49;100875.50;2212671;79;20991;-82
2022/05/07 09:25:31;;;;;;;6.17;2.83;;;;;;;26.35;33.72;100880.62;2216796;79;20964;-81
2022/05/07 09:28:34;;;;;;;3.15;2.37;;;;;;;26.70;33.43;100875.36;2241113;79;21034;-82
2022/05/07 09:31:41;;;;;;;4.42;2.00;;;;;;;26.66;32.77;100870.94;2241015;79;20976;-82
2022/05/07 09:38:10;;;;;;;4.80;2.17;;;;;;;26.85;31.81;100859.71;2195229;80;21615;-84
2022/05/07 09:41:21;;;;;;;6.72;2.08;;;;;;;26.75;31.16;100860.41;2195133;80;21054;-82
2022/05/07 09:44:24;;;;;;;3.83;1.90;;;;;;;26.77;31.02;100866.44;2194171;80;21025;-82
2022/05/07 09:47:27;;;;;;;4.55;2.90;;;;;;;26.99;30.25;100860.94;2173204;80;20992;-79
2022/05/07 10:00:20;;;;;;;5.12;2.60;;;;;;;27.13;31.19;100847.72;2171066;80;21032;-81
2022/05/07 10:03:30;;;;;;;3.92;2.30;;;;;;;26.97;30.30;100847.56;2176871;80;21095;-83
2022/05/07 10:07:22;;;;;;;2.20;1.98;;;;;;;27.13;30.38;100843.64;2172009;80;21073;-83
2022/05/07 10:10:32;;;;;;;8.08;2.90;;;;;;;27.27;29.89;100842.97;2167703;80;21017;-82
2022/05/07 10:13:34;;;;;;;3.90;2.83;;;;;;;26.98;28.89;100838.34;2179887;80;21045;-81
2022/05/07 10:16:35;;;;;;;2.60;2.37;;;;;;;26.66;29.14;100827.94;2178143;80;21004;-82
2022/05/07 10:19:44;;;;;;;3.70;2.35;;;;;;;26.53;28.78;100835.98;2173809;80;21019;-81
2022/05/07 10:22:56;;;;;;;5.90;2.27;;;;;;;26.00;28.96;100833.41;2174750;80;21014;-80
2022/05/07 10:26:01;;;;;;;4.45;2.55;;;;;;;25.50;29.35;100826.95;2174255;80;21062;-80
2022/05/07 10:29:03;;;;;;;2.27;2.08;;;;;;;24.99;29.10;100824.21;2172915;80;21049;-82
2022/05/07 10:32:06;;;;;;;5.55;2.40;;;;;;;24.15;29.12;100824.76;2169399;80;21530;-82
2022/05/07 10:35:08;;;;;;;4.95;2.47;;;;;;;23.38;29.54;100826.81;2211350;79;21412;-82
2022/05/07 10:38:31;;;;;;;2.95;2.10;;;;;;;22.83;30.24;100823.27;2218168;79;20980;-83
2022/05/07 10:41:32;;;;;;;3.30;2.25;;;;;;;22.65;30.79;100821.96;2212268;79;20995;-80
2022/05/07 10:44:34;;;;;;;5.47;2.35;;;;;;;22.69;31.28;100821.78;2215985;79;20994;-79
2022/05/07 10:47:36;;;;;;;3.10;1.92;;;;;;;22.60;30.78;100820.47;2220658;79;21477;-81
2022/05/07 10:50:38;;;;;;;7.17;1.98;;;;;;;22.39;31.69;100820.45;2208127;79;21031;-81
2022/05/07 10:53:39;;;;;;;7.15;2.52;;;;;;;22.23;32.15;100819.17;2215169;79;21051;-82
2022/05/07 10:56:53;;;;;;;2.75;2.08;;;;;;;22.07;32.06;100814.34;2214609;79;20989;-80
2022/05/07 10:59:54;;;;;;;4.90;2.17;;;;;;;21.94;32.32;100816.16;2214562;79;21027;-81
2022/05/07 11:03:00;;;;;;;4.05;2.10;;;;;;;21.91;32.34;100811.20;2213263;79;20954;-81
2022/05/07 11:06:02;;;;;;;3.50;2.40;;;;;;;21.92;32.65;100811.50;2220967;78;21583;-81
2022/05/07 11:09:03;;;;;;;2.27;2.08;;;;;;;22.13;32.59;100814.78;2217897;79;21061;-81
2022/05/07 11:12:06;;;;;;;3.02;2.00;;;;;;;22.82;32.89;100807.25;2219054;79;21027;-81
2022/05/07 11:15:08;;;;;;;3.20;2.47;;;;;;;22.98;32.21;100804.45;2183955;79;21501;-80
2022/05/07 11:18:14;;;;;;;3.85;2.17;;;;;;;23.19;32.19;100801.71;2216816;79;20971;-81
2022/05/07 11:21:15;;;;;;;2.55;1.92;;;;;;;23.69;32.46;100798.55;2212001;79;20996;-82
2022/05/07 11:24:24;;;;;;;4.72;2.40;;;;;;;24.12;31.85;100790.00;2214359;79;20997;-81
2022/05/07 11:27:21;;;;;;;5.55;2.90;;;;;;;24.20;31.64;100792.05;2206952;79;21785;-81
2022/05/07 11:30:25;;;;;;;5.00;2.45;;;;;;;24.32;31.35;100784.70;2213605;79;21453;-82
2022/05/07 11:33:28;;;;;;;4.80;2.25;;;;;;;24.51;31.27;100778.05;2220677;78;21027;-82
2022/05/07 11:36:32;;;;;;;4.85;2.60;;;;;;;24.76;31.78;100782.29;2258008;77;21005;-80
2022/05/07 11:39:33;;;;;;;4.55;2.55;;;;;;;24.94;30.83;100773.08;2232874;79;21037;-81
2022/05/07 11:42:46;;;;;;;6.22;2.45;;;;;;;25.02;31.11;100771.32;2237101;79;21516;-82
2022/05/07 11:45:47;;;;;;;3.10;2.30;;;;;;;24.89;30.15;100771.12;2235859;79;21046;-82
2022/05/07 11:48:49;;;;;;;3.80;2.05;;;;;;;24.21;30.56;100772.81;2233761;78;21057;-82
2022/05/07 11:51:52;;;;;;;7.22;2.45;;;;;;;24.20;31.41;100772.54;2199361;78;21004;-82
2022/05/07 11:54:53;;;;;;;4.30;2.37;;;;;;;24.09;30.81;100770.69;2233580;78;20970;-84
2022/05/07 11:57:56;;;;;;;5.72;2.25;;;;;;;23.73;30.95;100764.52;2236907;78;20992;-82
2022/05/07 12:00:57;;;;;;;7.50;2.27;;;;;;;23.33;31.45;100761.70;2238022;78;21483;-83
2022/05/07 12:04:16;;;;;;;3.33;2.40;;;;;;;22.96;30.92;100768.67;2236036;78;20970;-84
2022/05/07 12:08:23;;;;;;;;;;;;;;;;;;;;;
2022/05/07 12:45:35;;;;;;;5.58;2.60;;;;;;;22.49;32.36;100745.53;1874178;93;21141;-84
2022/05/07 12:48:36;;;;;;;4.20;2.20;;;;;;;21.98;32.47;100744.11;2018223;82;21040;-83
2022/05/07 12:51:37;;;;;;;8.95;2.02;;;;;;;21.81;32.33;100742.55;2200020;78;21010;-83
2022/05/07 13:03:02;;;;;;;4.37;2.42;;;;;;;22.15;32.19;100733.79;2161644;81;21617;-85
2022/05/07 13:06:06;;;;;;;3.20;2.20;;;;;;;22.16;32.02;100731.41;2149640;77;21010;-87
2022/05/07 13:09:08;;;;;;;2.42;2.22;;;;;;;22.18;32.12;100729.84;2277377;76;20982;-87
2022/05/07 13:12:13;;;;;;;5.17;2.02;;;;;;;22.27;32.12;100731.19;2280118;76;21042;-85
2022/05/07 13:15:15;;;;;;;3.80;2.35;;;;;;;22.47;31.86;100730.91;2282149;76;20947;-85
2022/05/07 13:18:23;;;;;;;4.55;1.70;;;;;;;22.69;32.07;100717.65;2278493;77;21046;-86
2022/05/07 13:21:28;;;;;;;4.65;2.02;;;;;;;22.96;32.66;100718.62;2280813;76;20976;-83
2022/05/07 13:24:30;;;;;;;2.60;2.15;;;;;;;23.18;31.97;100710.21;2275073;77;20940;-87
2022/05/07 13:27:33;;;;;;;3.47;1.95;;;;;;;23.19;32.00;100714.56;2277773;77;20982;-84
2022/05/07 13:30:36;;;;;;;3.67;2.20;;;;;;;23.16;31.15;100709.62;2282771;77;21122;-87
2022/05/07 13:33:40;;;;;;;2.05;1.60;;;;;;;23.24;31.32;100707.91;2279945;77;21037;-85
2022/05/07 13:36:42;;;;;;;2.37;2.00;;;;;;;23.35;31.51;100708.16;2274425;77;22069;-86
2022/05/07 13:39:43;;;;;;;3.27;2.20;;;;;;;23.38;31.17;100704.97;2279976;77;21439;-85
2022/05/07 13:42:49;;;;;;;3.45;2.00;;;;;;;23.21;30.84;100707.03;2282642;77;20966;-85
2022/05/07 13:45:50;;;;;;;4.17;1.72;;;;;;;23.41;30.87;100696.37;2254660;77;21058;-88
2022/05/07 13:48:53;;;;;;;3.12;2.00;;;;;;;23.50;30.80;100698.99;2244243;77;20987;-85
2022/05/07 13:51:58;;;;;;;2.70;1.95;;;;;;;23.32;31.01;100696.45;2254800;77;21006;-85
2022/05/07 13:54:59;;;;;;;5.67;2.60;;;;;;;23.03;31.03;100696.31;2244016;77;21061;-86
2022/05/07 13:58:04;;;;;;;4.00;2.17;;;;;;;22.89;31.12;100693.00;2242791;77;21499;-88
2022/05/07 14:01:06;;;;;;;7.22;2.52;;;;;;;23.00;31.34;100691.37;2236881;77;21042;-83
2022/05/07 14:04:07;;;;;;;4.30;2.12;;;;;;;23.01;31.58;100686.27;2244180;77;20976;-84
2022/05/07 14:07:14;;;;;;;4.47;2.10;;;;;;;23.01;31.50;100683.03;2245819;76;21056;-85
2022/05/07 14:10:19;;;;;;;4.75;2.25;;;;;;;23.03;31.54;100680.92;2242329;77;21007;-85
2022/05/07 14:13:21;;;;;;;5.75;2.08;;;;;;;23.04;31.40;100681.20;2243182;76;21533;-84
2022/05/07 14:16:23;;;;;;;3.60;2.22;;;;;;;23.04;31.47;100676.33;2254361;77;21000;-84
2022/05/07 14:19:31;;;;;;;4.90;2.00;;;;;;;23.00;31.17;100684.61;2245283;77;21057;-86
2022/05/07 14:22:34;;;;;;;4.17;2.30;;;;;;;22.98;31.28;100678.09;2244809;77;21007;-87
2022/05/07 14:25:40;;;;;;;6.65;2.65;;;;;;;22.85;31.07;100674.76;2237755;76;20930;-87
2022/05/07 14:28:44;;;;;;;4.30;2.00;;;;;;;22.74;31.13;100677.21;2247620;77;21039;-85
2022/05/07 14:31:45;;;;;;;3.22;2.05;;;;;;;22.67;30.73;100676.52;2247711;77;21432;-87
2022/05/07 14:34:49;;;;;;;2.15;1.92;;;;;;;22.53;30.90;100675.89;2243128;77;21048;-87
2022/05/07 14:37:52;;;;;;;4.58;2.22;;;;;;;22.61;31.45;100673.39;2240142;77;20978;-84
2022/05/07 14:40:53;;;;;;;3.17;2.20;;;;;;;22.68;31.22;100670.03;2241773;77;21457;-85
2022/05/07 14:43:55;;;;;;;3.00;2.33;;;;;;;22.73;31.20;100665.29;2238492;77;20977;-86
2022/05/07 14:47:00;;;;;;;4.85;2.02;;;;;;;22.70;31.11;100665.22;2296639;77;20944;-87
2022/05/07 14:50:01;;;;;;;5.80;2.37;;;;;;;22.68;31.40;100665.98;2298179;77;21491;-87
2022/05/07 14:53:03;;;;;;;2.90;2.17;;;;;;;22.66;31.05;100659.15;2294336;77;21063;-85
2022/05/07 14:56:08;;;;;;;4.67;2.90;;;;;;;22.59;31.16;100666.03;2294302;76;21055;-88
2022/05/07 14:59:10;;;;;;;7.15;2.65;;;;;;;22.63;31.17;100656.38;2289746;77;21026;-87
2022/05/07 15:02:11;;;;;;;3.67;2.52;;;;;;;22.47;31.16;100655.70;2293530;76;20929;-86
2022/05/07 15:05:15;;;;;;;6.72;2.47;;;;;;;22.22;31.74;100657.25;2286493;77;20998;-85
2022/05/07 15:11:38;;;;;;;7.35;2.52;;;;;;;22.26;31.87;100655.73;2290567;77;20986;-85
2022/05/07 15:14:40;;;;;;;3.37;2.30;;;;;;;22.30;32.13;100652.34;2293774;77;21028;-85
2022/05/07 15:17:43;;;;;;;3.55;2.17;;;;;;;22.36;31.57;100652.77;2296489;76;20997;-85
2022/05/07 15:20:49;;;;;;;3.25;2.40;;;;;;;22.32;31.61;100646.69;2294032;77;21010;-85
2022/05/07 15:23:48;;;;;;;4.42;2.20;;;;;;;22.28;31.40;100650.39;2297141;77;21363;-85
2022/05/07 15:26:51;;;;;;;4.37;2.45;;;;;;;22.14;31.47;100643.50;2293092;77;21011;-85
2022/05/07 15:29:52;;;;;;;3.95;2.02;;;;;;;22.03;31.96;100640.23;2288355;76;21575;-83
2022/05/07 15:39:32;;;;;;;2.33;2.10;;;;;;;21.96;32.05;100640.84;2297762;76;21530;-82